sensor_id;sensor_type;location;lat;lon;timestamp;temperature;humidity
62912;DHT22;49111;51.028;4.218;2023-02-28T07:06:53;4.30;99.90
62912;DHT22;49111;51.028;4.218;2023-02-28T07:09:21;4.30;99.90
62912;DHT22;49111;51.028;4.218;2023-02-28T07:11:47;4.40;99.90
62912;DHT22;49111;51.028;4.218;2023-02-28T07:14:12;4.30;99.90
62912;DHT22;49111;51.028;4.218;2023-02-28T07:16:38;4.30;99.90
62912;DHT22;49111;51.028;4.218;2023-02-28T07:19:04;4.30;99.90
62912;DHT22;49111;51.028;4.218;2023-02-28T07:21:30;4.40;99.90
62912;DHT22;49111;51.028;4.218;2023-02-28T07:23:56;4.40;99.90
62912;DHT22;49111;51.028;4.218;2023-02-28T07:26:22;4.40;99.90
62912;DHT22;49111;51.028;4.218;2023-02-28T07:28:48;4.50;99.90
62912;DHT22;49111;51.028;4.218;2023-02-28T07:31:14;4.60;99.90
62912;DHT22;49111;51.028;4.218;2023-02-28T07:33:41;4.60;99.90
62912;DHT22;49111;51.028;4.218;2023-02-28T07:36:10;4.50;99.90
62912;DHT22;49111;51.028;4.218;2023-02-28T07:38:42;4.60;99.90
62912;DHT22;49111;51.028;4.218;2023-02-28T07:41:08;4.60;99.90
62912;DHT22;49111;51.028;4.218;2023-02-28T07:43:35;4.70;99.90
62912;DHT22;49111;51.028;4.218;2023-02-28T07:46:06;4.80;99.90
62912;DHT22;49111;51.028;4.218;2023-02-28T07:48:32;4.80;99.90
62912;DHT22;49111;51.028;4.218;2023-02-28T07:50:59;4.90;99.90
62912;DHT22;49111;51.028;4.218;2023-02-28T07:53:26;4.80;99.90
62912;DHT22;49111;51.028;4.218;2023-02-28T07:56:00;5.00;99.90
62912;DHT22;49111;51.028;4.218;2023-02-28T07:58:27;5.00;99.90
62912;DHT22;49111;51.028;4.218;2023-02-28T08:00:53;5.00;99.90
62912;DHT22;49111;51.028;4.218;2023-02-28T08:03:21;5.10;99.90
62912;DHT22;49111;51.028;4.218;2023-02-28T08:05:47;5.20;99.90
62912;DHT22;49111;51.028;4.218;2023-02-28T08:08:14;5.20;99.90
62912;DHT22;49111;51.028;4.218;2023-02-28T08:10:40;5.20;99.90
62912;DHT22;49111;51.028;4.218;2023-02-28T08:13:06;5.20;99.90
62912;DHT22;49111;51.028;4.218;2023-02-28T08:15:32;5.20;99.90
62912;DHT22;49111;51.028;4.218;2023-02-28T08:17:59;5.20;99.70
62912;DHT22;49111;51.028;4.218;2023-02-28T08:20:25;5.30;99.70
62912;DHT22;49111;51.028;4.218;2023-02-28T08:22:51;5.20;99.50
62912;DHT22;49111;51.028;4.218;2023-02-28T08:25:17;5.30;99.90
62912;DHT22;49111;51.028;4.218;2023-02-28T08:27:43;5.40;99.30
62912;DHT22;49111;51.028;4.218;2023-02-28T08:30:13;5.60;98.60
62912;DHT22;49111;51.028;4.218;2023-02-28T08:32:40;5.50;97.30
62912;DHT22;49111;51.028;4.218;2023-02-28T08:35:06;5.50;97.20
62912;DHT22;49111;51.028;4.218;2023-02-28T08:37:34;5.40;97.00
62912;DHT22;49111;51.028;4.218;2023-02-28T08:40:00;5.40;96.50
62912;DHT22;49111;51.028;4.218;2023-02-28T08:42:26;5.50;96.40
62912;DHT22;49111;51.028;4.218;2023-02-28T08:44:51;5.50;96.60
62912;DHT22;49111;51.028;4.218;2023-02-28T08:47:17;5.50;96.10
62912;DHT22;49111;51.028;4.218;2023-02-28T08:49:43;5.60;96.20
62912;DHT22;49111;51.028;4.218;2023-02-28T08:52:09;5.60;95.20
62912;DHT22;49111;51.028;4.218;2023-02-28T08:54:35;5.70;94.90
62912;DHT22;49111;51.028;4.218;2023-02-28T08:57:02;5.70;94.00
62912;DHT22;49111;51.028;4.218;2023-02-28T08:59:29;5.80;93.60
62912;DHT22;49111;51.028;4.218;2023-02-28T09:01:55;5.90;93.60
62912;DHT22;49111;51.028;4.218;2023-02-28T09:04:21;5.90;92.90
62912;DHT22;49111;51.028;4.218;2023-02-28T09:06:48;5.80;92.10
62912;DHT22;49111;51.028;4.218;2023-02-28T09:09:15;5.80;91.80
62912;DHT22;49111;51.028;4.218;2023-02-28T09:11:41;5.80;91.60
62912;DHT22;49111;51.028;4.218;2023-02-28T09:14:07;5.80;91.60
62912;DHT22;49111;51.028;4.218;2023-02-28T09:16:33;5.80;91.20
62912;DHT22;49111;51.028;4.218;2023-02-28T09:19:00;5.90;90.50
62912;DHT22;49111;51.028;4.218;2023-02-28T09:21:26;6.00;90.50
62912;DHT22;49111;51.028;4.218;2023-02-28T09:23:52;6.10;90.90
62912;DHT22;49111;51.028;4.218;2023-02-28T09:26:21;6.10;90.30
62912;DHT22;49111;51.028;4.218;2023-02-28T09:28:47;6.20;89.40
62912;DHT22;49111;51.028;4.218;2023-02-28T09:31:15;6.30;87.20
62912;DHT22;49111;51.028;4.218;2023-02-28T09:33:41;6.30;87.30
62912;DHT22;49111;51.028;4.218;2023-02-28T09:36:07;6.50;88.70
62912;DHT22;49111;51.028;4.218;2023-02-28T09:38:33;6.60;89.00
62912;DHT22;49111;51.028;4.218;2023-02-28T09:41:10;6.50;86.90
62912;DHT22;49111;51.028;4.218;2023-02-28T09:43:40;6.60;87.00
62912;DHT22;49111;51.028;4.218;2023-02-28T09:46:38;6.50;86.70
62912;DHT22;49111;51.028;4.218;2023-02-28T09:49:18;6.30;85.70
62912;DHT22;49111;51.028;4.218;2023-02-28T09:52:01;6.10;84.20
62912;DHT22;49111;51.028;4.218;2023-02-28T09:54:31;6.20;83.70
62912;DHT22;49111;51.028;4.218;2023-02-28T10:05:20;6.10;82.90
62912;DHT22;49111;51.028;4.218;2023-02-28T10:08:10;6.20;83.40
62912;DHT22;49111;51.028;4.218;2023-02-28T10:10:49;6.20;81.90
62912;DHT22;49111;51.028;4.218;2023-02-28T10:14:13;6.30;81.10
62912;DHT22;49111;51.028;4.218;2023-02-28T10:16:46;6.30;82.80
62912;DHT22;49111;51.028;4.218;2023-02-28T10:19:32;6.20;81.10
62912;DHT22;49111;51.028;4.218;2023-02-28T10:22:08;6.30;79.60
62912;DHT22;49111;51.028;4.218;2023-02-28T10:24:47;6.30;79.80
62912;DHT22;49111;51.028;4.218;2023-02-28T10:27:19;6.30;79.60
62912;DHT22;49111;51.028;4.218;2023-02-28T10:29:49;6.40;80.90
62912;DHT22;49111;51.028;4.218;2023-02-28T10:32:18;6.50;78.50
62912;DHT22;49111;51.028;4.218;2023-02-28T10:34:44;6.50;78.60
62912;DHT22;49111;51.028;4.218;2023-02-28T10:37:16;6.50;79.20
62912;DHT22;49111;51.028;4.218;2023-02-28T10:39:44;6.50;79.40
62912;DHT22;49111;51.028;4.218;2023-02-28T10:42:28;6.50;79.10
62912;DHT22;49111;51.028;4.218;2023-02-28T10:48:01;6.30;77.80
62912;DHT22;49111;51.028;4.218;2023-02-28T10:50:42;6.30;77.50
62912;DHT22;49111;51.028;4.218;2023-02-28T10:58:54;6.30;78.10
62912;DHT22;49111;51.028;4.218;2023-02-28T11:03:55;6.40;77.50
62912;DHT22;49111;51.028;4.218;2023-02-28T11:06:26;6.30;74.30
62912;DHT22;49111;51.028;4.218;2023-02-28T11:08:58;6.30;75.20
62912;DHT22;49111;51.028;4.218;2023-02-28T11:11:27;6.50;77.50
62912;DHT22;49111;51.028;4.218;2023-02-28T11:13:56;6.60;75.80
62912;DHT22;49111;51.028;4.218;2023-02-28T11:16:34;6.60;76.00
62912;DHT22;49111;51.028;4.218;2023-02-28T11:19:02;6.70;74.70
62912;DHT22;49111;51.028;4.218;2023-02-28T11:21:32;6.80;74.10
62912;DHT22;49111;51.028;4.218;2023-02-28T11:24:28;6.90;73.10
62912;DHT22;49111;51.028;4.218;2023-02-28T11:26:54;7.00;73.80
62912;DHT22;49111;51.028;4.218;2023-02-28T11:34:35;7.30;75.50
62912;DHT22;49111;51.028;4.218;2023-02-28T11:37:01;7.20;75.10
62912;DHT22;49111;51.028;4.218;2023-02-28T11:39:32;7.30;76.30
62912;DHT22;49111;51.028;4.218;2023-02-28T11:42:02;7.40;71.50
62912;DHT22;49111;51.028;4.218;2023-02-28T11:50:23;7.60;68.60
62912;DHT22;49111;51.028;4.218;2023-02-28T11:52:55;7.60;67.40
62912;DHT22;49111;51.028;4.218;2023-02-28T11:55:26;7.60;67.80
62912;DHT22;49111;51.028;4.218;2023-02-28T12:14:30;7.70;67.00
62912;DHT22;49111;51.028;4.218;2023-02-28T12:17:27;7.70;65.50
62912;DHT22;49111;51.028;4.218;2023-02-28T12:27:55;7.90;64.90
62912;DHT22;49111;51.028;4.218;2023-02-28T12:30:31;7.80;63.80
62912;DHT22;49111;51.028;4.218;2023-02-28T12:33:10;7.90;64.00
62912;DHT22;49111;51.028;4.218;2023-02-28T12:35:45;7.90;65.70
62912;DHT22;49111;51.028;4.218;2023-02-28T12:38:21;7.90;64.80
62912;DHT22;49111;51.028;4.218;2023-02-28T12:41:00;8.00;63.50
62912;DHT22;49111;51.028;4.218;2023-02-28T12:43:38;8.00;62.90
62912;DHT22;49111;51.028;4.218;2023-02-28T12:48:48;8.20;63.20
62912;DHT22;49111;51.028;4.218;2023-02-28T12:51:17;8.10;61.90
62912;DHT22;49111;51.028;4.218;2023-02-28T12:53:57;8.00;64.40
62912;DHT22;49111;51.028;4.218;2023-02-28T12:59:27;8.20;64.70
62912;DHT22;49111;51.028;4.218;2023-02-28T13:10:47;8.30;62.30
62912;DHT22;49111;51.028;4.218;2023-02-28T13:13:21;8.30;61.40
62912;DHT22;49111;51.028;4.218;2023-02-28T13:16:17;8.40;62.50
62912;DHT22;49111;51.028;4.218;2023-02-28T13:18:45;8.60;63.50
62912;DHT22;49111;51.028;4.218;2023-02-28T13:21:28;8.60;61.60
62912;DHT22;49111;51.028;4.218;2023-02-28T13:47:44;8.90;60.60
62912;DHT22;49111;51.028;4.218;2023-02-28T13:55:44;8.60;58.80
62912;DHT22;49111;51.028;4.218;2023-02-28T14:01:46;8.60;58.70
62912;DHT22;49111;51.028;4.218;2023-02-28T14:04:32;8.70;59.40
62912;DHT22;49111;51.028;4.218;2023-02-28T14:07:03;8.80;60.90
62912;DHT22;49111;51.028;4.218;2023-02-28T14:09:39;8.90;59.90
62912;DHT22;49111;51.028;4.218;2023-02-28T14:15:38;8.80;59.60
62912;DHT22;49111;51.028;4.218;2023-02-28T14:18:28;8.70;59.30
62912;DHT22;49111;51.028;4.218;2023-02-28T14:21:02;8.90;60.10
62912;DHT22;49111;51.028;4.218;2023-02-28T14:23:40;8.90;60.30
62912;DHT22;49111;51.028;4.218;2023-02-28T14:28:40;8.80;61.50
62912;DHT22;49111;51.028;4.218;2023-02-28T14:31:29;8.70;59.90
62912;DHT22;49111;51.028;4.218;2023-02-28T14:36:42;8.50;59.10
62912;DHT22;49111;51.028;4.218;2023-02-28T14:39:16;8.50;59.50
62912;DHT22;49111;51.028;4.218;2023-02-28T14:41:44;8.50;60.70
62912;DHT22;49111;51.028;4.218;2023-02-28T14:44:21;8.50;60.60
62912;DHT22;49111;51.028;4.218;2023-02-28T14:46:53;8.60;60.20
62912;DHT22;49111;51.028;4.218;2023-02-28T14:49:37;8.60;60.60
62912;DHT22;49111;51.028;4.218;2023-02-28T14:52:19;8.50;61.30
62912;DHT22;49111;51.028;4.218;2023-02-28T14:54:46;8.40;61.20
62912;DHT22;49111;51.028;4.218;2023-02-28T14:57:28;8.30;61.60
62912;DHT22;49111;51.028;4.218;2023-02-28T15:00:25;8.50;61.70
62912;DHT22;49111;51.028;4.218;2023-02-28T15:02:51;8.40;60.70
62912;DHT22;49111;51.028;4.218;2023-02-28T15:05:23;8.30;61.40
62912;DHT22;49111;51.028;4.218;2023-02-28T15:08:10;8.20;61.60
62912;DHT22;49111;51.028;4.218;2023-02-28T15:10:38;8.30;62.50
62912;DHT22;49111;51.028;4.218;2023-02-28T15:13:08;8.30;62.60
62912;DHT22;49111;51.028;4.218;2023-02-28T15:16:10;8.30;62.20
62912;DHT22;49111;51.028;4.218;2023-02-28T15:18:47;8.30;62.00
62912;DHT22;49111;51.028;4.218;2023-02-28T15:23:54;8.40;62.30
62912;DHT22;49111;51.028;4.218;2023-02-28T15:26:24;8.40;61.80
62912;DHT22;49111;51.028;4.218;2023-02-28T15:29:05;8.30;61.10
62912;DHT22;49111;51.028;4.218;2023-02-28T15:31:41;8.30;62.60
62912;DHT22;49111;51.028;4.218;2023-02-28T15:34:27;8.30;62.20
62912;DHT22;49111;51.028;4.218;2023-02-28T15:36:53;8.30;62.10
62912;DHT22;49111;51.028;4.218;2023-02-28T15:39:27;8.30;62.50
62912;DHT22;49111;51.028;4.218;2023-02-28T15:42:32;8.30;61.30
62912;DHT22;49111;51.028;4.218;2023-02-28T15:44:58;8.30;62.20
62912;DHT22;49111;51.028;4.218;2023-02-28T15:47:27;8.20;62.00
62912;DHT22;49111;51.028;4.218;2023-02-28T15:49:54;8.10;61.90
62912;DHT22;49111;51.028;4.218;2023-02-28T15:52:28;8.10;62.70
62912;DHT22;49111;51.028;4.218;2023-02-28T15:54:57;8.10;61.80
62912;DHT22;49111;51.028;4.218;2023-02-28T15:57:28;8.20;62.20
62912;DHT22;49111;51.028;4.218;2023-02-28T16:00:00;8.20;62.20
62912;DHT22;49111;51.028;4.218;2023-02-28T16:02:38;8.20;62.90
62912;DHT22;49111;51.028;4.218;2023-02-28T16:07:40;8.30;62.20
62912;DHT22;49111;51.028;4.218;2023-02-28T16:10:07;8.30;62.70
62912;DHT22;49111;51.028;4.218;2023-02-28T16:12:35;8.20;62.60
62912;DHT22;49111;51.028;4.218;2023-02-28T16:15:07;8.20;63.00
62912;DHT22;49111;51.028;4.218;2023-02-28T16:17:35;8.20;62.80
62912;DHT22;49111;51.028;4.218;2023-02-28T16:20:39;8.10;63.10
62912;DHT22;49111;51.028;4.218;2023-02-28T16:22:58;8.10;62.60
62912;DHT22;49111;51.028;4.218;2023-02-28T16:25:38;8.10;62.80
62912;DHT22;49111;51.028;4.218;2023-02-28T16:28:11;8.10;63.00
62912;DHT22;49111;51.028;4.218;2023-02-28T16:30:38;8.10;63.10
62912;DHT22;49111;51.028;4.218;2023-02-28T16:33:03;8.00;63.30
62912;DHT22;49111;51.028;4.218;2023-02-28T16:35:29;7.90;63.50
62912;DHT22;49111;51.028;4.218;2023-02-28T16:37:55;7.80;63.50
62912;DHT22;49111;51.028;4.218;2023-02-28T16:40:23;7.60;63.50
62912;DHT22;49111;51.028;4.218;2023-02-28T16:42:52;7.50;63.60
62912;DHT22;49111;51.028;4.218;2023-02-28T16:45:27;7.30;63.90
62912;DHT22;49111;51.028;4.218;2023-02-28T16:47:55;7.30;63.80
62912;DHT22;49111;51.028;4.218;2023-02-28T16:50:22;7.30;64.40
62912;DHT22;49111;51.028;4.218;2023-02-28T16:52:49;7.30;64.40
62912;DHT22;49111;51.028;4.218;2023-02-28T16:55:17;7.30;65.30
62912;DHT22;49111;51.028;4.218;2023-02-28T16:57:55;7.20;65.60
62912;DHT22;49111;51.028;4.218;2023-02-28T17:00:22;7.30;65.60
62912;DHT22;49111;51.028;4.218;2023-02-28T17:02:48;7.20;65.80
62912;DHT22;49111;51.028;4.218;2023-02-28T17:05:14;7.10;65.10
62912;DHT22;49111;51.028;4.218;2023-02-28T17:07:41;7.10;66.00
62912;DHT22;49111;51.028;4.218;2023-02-28T17:12:39;7.00;66.10
62912;DHT22;49111;51.028;4.218;2023-02-28T17:15:06;6.90;65.90
62912;DHT22;49111;51.028;4.218;2023-02-28T17:17:32;6.80;65.90
62912;DHT22;49111;51.028;4.218;2023-02-28T17:19:58;6.80;66.20
62912;DHT22;49111;51.028;4.218;2023-02-28T17:22:23;6.80;66.40
62912;DHT22;49111;51.028;4.218;2023-02-28T17:24:51;7.20;67.00
62912;DHT22;49111;51.028;4.218;2023-02-28T17:27:21;6.90;67.00
62912;DHT22;49111;51.028;4.218;2023-02-28T17:29:47;6.90;67.00
62912;DHT22;49111;51.028;4.218;2023-02-28T17:32:13;6.80;66.90
62912;DHT22;49111;51.028;4.218;2023-02-28T17:34:39;6.80;67.60
62912;DHT22;49111;51.028;4.218;2023-02-28T17:37:04;6.80;67.70
62912;DHT22;49111;51.028;4.218;2023-02-28T17:39:30;6.80;67.70
62912;DHT22;49111;51.028;4.218;2023-02-28T17:41:56;6.80;67.50
62912;DHT22;49111;51.028;4.218;2023-02-28T17:44:23;6.70;66.80
62912;DHT22;49111;51.028;4.218;2023-02-28T17:46:50;6.60;67.40
62912;DHT22;49111;51.028;4.218;2023-02-28T17:49:17;6.60;67.20
62912;DHT22;49111;51.028;4.218;2023-02-28T17:51:43;6.60;67.40
62912;DHT22;49111;51.028;4.218;2023-02-28T17:54:09;6.60;67.60
62912;DHT22;49111;51.028;4.218;2023-02-28T17:56:46;6.60;67.60
62912;DHT22;49111;51.028;4.218;2023-02-28T17:59:12;6.50;68.10
62912;DHT22;49111;51.028;4.218;2023-02-28T18:01:43;6.50;68.30
62912;DHT22;49111;51.028;4.218;2023-02-28T18:04:08;6.50;68.50
62912;DHT22;49111;51.028;4.218;2023-02-28T18:06:43;6.40;68.40
62912;DHT22;49111;51.028;4.218;2023-02-28T18:09:18;6.40;68.90
62912;DHT22;49111;51.028;4.218;2023-02-28T18:11:45;6.30;69.00
62912;DHT22;49111;51.028;4.218;2023-02-28T18:14:13;6.30;69.50
62912;DHT22;49111;51.028;4.218;2023-02-28T18:16:39;6.30;69.60
62912;DHT22;49111;51.028;4.218;2023-02-28T18:19:05;6.20;69.90
62912;DHT22;49111;51.028;4.218;2023-02-28T18:21:33;6.20;69.80
62912;DHT22;49111;51.028;4.218;2023-02-28T18:23:59;6.20;69.90
62912;DHT22;49111;51.028;4.218;2023-02-28T18:26:25;6.20;70.20
62912;DHT22;49111;51.028;4.218;2023-02-28T18:28:51;6.20;70.40
62912;DHT22;49111;51.028;4.218;2023-02-28T18:31:19;6.10;70.20
62912;DHT22;49111;51.028;4.218;2023-02-28T18:33:50;6.10;70.50
62912;DHT22;49111;51.028;4.218;2023-02-28T18:36:17;6.10;70.80
62912;DHT22;49111;51.028;4.218;2023-02-28T18:38:43;6.00;71.20
62912;DHT22;49111;51.028;4.218;2023-02-28T18:41:10;5.90;71.50
62912;DHT22;49111;51.028;4.218;2023-02-28T18:43:36;5.80;71.60
62912;DHT22;49111;51.028;4.218;2023-02-28T18:46:11;5.80;72.10
62912;DHT22;49111;51.028;4.218;2023-02-28T18:48:37;5.80;72.30
62912;DHT22;49111;51.028;4.218;2023-02-28T18:51:12;5.70;72.70
62912;DHT22;49111;51.028;4.218;2023-02-28T18:53:39;5.70;73.00
62912;DHT22;49111;51.028;4.218;2023-02-28T18:56:06;5.70;73.00
62912;DHT22;49111;51.028;4.218;2023-02-28T18:58:32;5.70;73.10
62912;DHT22;49111;51.028;4.218;2023-02-28T19:01:03;5.60;73.40
62912;DHT22;49111;51.028;4.218;2023-02-28T19:03:29;5.60;73.60
62912;DHT22;49111;51.028;4.218;2023-02-28T19:05:59;5.60;73.80
62912;DHT22;49111;51.028;4.218;2023-02-28T19:08:25;5.50;74.00
62912;DHT22;49111;51.028;4.218;2023-02-28T19:10:51;5.60;74.20
62912;DHT22;49111;51.028;4.218;2023-02-28T19:13:17;5.90;74.40
62912;DHT22;49111;51.028;4.218;2023-02-28T19:15:45;5.40;74.40
62912;DHT22;49111;51.028;4.218;2023-02-28T19:18:11;5.40;74.40
62912;DHT22;49111;51.028;4.218;2023-02-28T19:20:38;5.30;74.40
62912;DHT22;49111;51.028;4.218;2023-02-28T19:23:04;5.30;74.40
62912;DHT22;49111;51.028;4.218;2023-02-28T19:25:30;5.30;74.10
